Fascination — C6FM9 — position and weather

sailwx.info

Track history (hours):
 
Tides and Currents Weather Stations Pressure Air Temp Water Temp Dewpoint Dewpoint Depression Visibility Wind Speed Wind Dir Waves Ship Positions

Fascination

Operator: Carnival Cruise Lines

Last reported at 2019-Oct-17 18:15 UTC. Time now 2019-Oct-17 18:47 UTC.
Position N 14°01' W 060°60'.

Type: Ship. MMSI: 309682000.

Date/timePositionNaut miles runAvg speedWind from/ knotsBaromVisibWave heightAir tempDewpointWater temp
2019-Oct-17 18:15N 14°01' W 060°60'0 0.0
2019-Oct-17 13:52N 14°01' W 060°60'0 0.0
2019-Oct-17 11:22N 14°01' W 060°60'0 0.6
2019-Oct-17 11:00N 14°01' W 060°60'2 4.8
2019-Oct-17 10:30N 14°02' W 061°02'612.0
2019-Oct-17 10:00N 14°06' W 061°06'612.2
2019-Oct-17 09:30N 14°10' W 061°11'917.1
2019-Oct-17 09:00N 14°17' W 061°17'916.8
2019-Oct-17 08:27N 14°25' W 061°22'817.1
2019-Oct-17 08:00N 14°32' W 061°25'916.8
2019-Oct-17 07:30N 14°39' W 061°29'1217.2
2019-Oct-17 06:49N 14°50' W 061°35'1012.8
2019-Oct-17 06:00N 15°00' W 061°36'184 7.6 040 / 21012.010.8 27.024.126.0
2019-Oct-16 06:00N 17°42' W 063°06'58 2.3 120 / 101014.010.8 28.025.227.0
2019-Oct-15 05:00N 18°24' W 063°48'48 9.0 110 / 111014.010.8 28.023.727.0
2019-Oct-14 23:35N 18°09' W 064°37'210.3
2019-Oct-14 23:26N 18°09' W 064°38'410.1
2019-Oct-14 23:00N 18°10' W 064°43'510.3
2019-Oct-14 22:30N 18°11' W 064°48'510.4
2019-Oct-14 22:00N 18°13' W 064°53'610.0
2019-Oct-14 21:26N 18°18' W 064°55'2 4.5
2019-Oct-14 21:00N 18°20' W 064°55'0 0.0
2019-Oct-14 20:27N 18°20' W 064°55'0 0.0
2019-Oct-14 19:45N 18°20' W 064°55'0 0.0
2019-Oct-14 19:27N 18°20' W 064°55'0 0.0
2019-Oct-14 18:57N 18°20' W 064°55'0 0.0
2019-Oct-14 18:27N 18°20' W 064°55'0 0.0
2019-Oct-14 17:56N 18°20' W 064°55'0 0.0
2019-Oct-14 17:20N 18°20' W 064°55'0 0.0
2019-Oct-14 16:56N 18°20' W 064°55'0 0.0
2019-Oct-14 16:26N 18°20' W 064°55'0 0.0
2019-Oct-14 15:55N 18°20' W 064°55'0 0.0
2019-Oct-14 15:19N 18°20' W 064°55'0 0.0
2019-Oct-14 14:55N 18°20' W 064°55'0 0.0
2019-Oct-14 14:25N 18°20' W 064°55'0 0.0
2019-Oct-14 13:55N 18°20' W 064°55'0 0.0
2019-Oct-14 13:15N 18°20' W 064°55'0 0.0
2019-Oct-14 13:00N 18°20' W 064°55'0 0.0
2019-Oct-14 12:30N 18°20' W 064°55'0 0.0
2019-Oct-14 12:00N 18°20' W 064°55'0 0.0
2019-Oct-14 11:30N 18°20' W 064°55'0 0.0
2019-Oct-14 11:00N 18°20' W 064°55'0 0.8
2019-Oct-14 10:30N 18°20' W 064°56'3 6.9
2019-Oct-14 10:00N 18°16' W 064°57'5 9.2
2019-Oct-14 09:30N 18°17' W 065°02'5 9.6
2019-Oct-14 09:00N 18°19' W 065°06'5 9.4
2019-Oct-14 08:30N 18°22' W 065°10'5 9.6
2019-Oct-14 08:00N 18°26' W 065°11'5 9.8
2019-Oct-14 07:30N 18°31' W 065°12'510.3
2019-Oct-14 07:00N 18°36' W 065°12'510.2
2019-Oct-14 06:30N 18°41' W 065°13'5 9.5
2019-Oct-14 06:00N 18°46' W 065°14'5 9.8
2019-Oct-14 05:30N 18°51' W 065°15'5 9.9
2019-Oct-14 05:00N 18°56' W 065°17'5522.8
2019-Oct-14 05:00N 18°54' W 065°12'1018.2 120 / 101013.010.8 28.023.727.0
2019-Oct-14 04:27N 18°57' W 065°22'510.3
2019-Oct-14 04:00N 18°58' W 065°27'610.3
2019-Oct-14 03:28N 18°58' W 065°33'510.3
2019-Oct-14 03:00N 18°58' W 065°38'510.2
2019-Oct-14 02:30N 18°58' W 065°43'23 9.0
2019-Oct-14 00:00N 18°44' W 066°02'610.3
2019-Oct-13 23:26N 18°39' W 066°05'410.2
2019-Oct-13 23:00N 18°35' W 066°07'510.1
2019-Oct-13 22:30N 18°30' W 066°08'3 5.1
2019-Oct-13 21:59N 18°28' W 066°07'0 0.1
2019-Oct-13 21:26N 18°28' W 066°07'0 0.0
2019-Oct-13 20:59N 18°28' W 066°07'0 0.0
2019-Oct-13 20:29N 18°28' W 066°07'0 0.0
2019-Oct-13 19:52N 18°28' W 066°07'0 0.0
2019-Oct-13 19:28N 18°28' W 066°07'0 0.0
2019-Oct-13 18:58N 18°28' W 066°07'0 0.0
2019-Oct-13 18:28N 18°28' W 066°07'0 0.0
2019-Oct-13 17:57N 18°28' W 066°07'0 0.0
2019-Oct-13 17:27N 18°28' W 066°07'0 0.0
2019-Oct-13 17:00N 18°28' W 066°07'0 0.0
2019-Oct-13 16:27N 18°28' W 066°07'0 0.0
2019-Oct-13 14:56N 18°28' W 066°07'0 0.0
2019-Oct-13 14:29N 18°28' W 066°07'0 0.0
2019-Oct-13 13:59N 18°28' W 066°07'0 0.0
2019-Oct-13 13:30N 18°28' W 066°07'0 0.0
2019-Oct-13 12:58N 18°28' W 066°07'0 0.0
2019-Oct-13 12:28N 18°28' W 066°07'0 0.0
2019-Oct-13 11:59N 18°28' W 066°07'0 0.0
2019-Oct-13 11:30N 18°28' W 066°07'0 0.0
2019-Oct-13 11:00N 18°28' W 066°07'0 0.0
2019-Oct-13 10:30N 18°28' W 066°07'2 3.5
2019-Oct-13 10:00N 18°29' W 066°08'510.7
2019-Oct-13 09:30N 18°34' W 066°07'611.1
2019-Oct-13 09:00N 18°40' W 066°04'710.6
2019-Oct-13 08:22N 18°44' W 065°59'512.3
2019-Oct-13 07:56N 18°43' W 065°54'512.4
2019-Oct-13 07:30N 18°43' W 065°48'612.6
2019-Oct-13 07:00N 18°41' W 065°41'8615.5
2019-Oct-13 07:00N 18°36' W 065°36'5 9.1 040 / 51012.010.8 28.023.727.0
2019-Oct-13 06:30N 18°40' W 065°35'714.6
2019-Oct-13 06:00N 18°39' W 065°27'815.1
2019-Oct-13 05:30N 18°35' W 065°20'815.7
2019-Oct-13 05:01N 18°29' W 065°15'815.5
2019-Oct-13 04:31N 18°23' W 065°10'815.4
2019-Oct-13 04:01N 18°16' W 065°09'714.2
2019-Oct-13 03:31N 18°12' W 065°03'816.1
2019-Oct-13 03:00N 18°09' W 064°55'816.2
2019-Oct-13 02:31N 18°08' W 064°47'816.1
2019-Oct-13 01:59N 18°05' W 064°38'27417.2
2019-Oct-12 10:06N 14°36' W 061°34'216.7
2019-Oct-12 09:58N 14°35' W 061°32'1016.8
2019-Oct-12 09:23N 14°27' W 061°26'1216.9
2019-Oct-12 08:41N 14°17' W 061°19'317.0
2019-Oct-12 08:30N 14°15' W 061°17'816.5
2019-Oct-12 08:00N 14°14' W 061°09'816.9
2019-Oct-12 07:31N 14°13' W 061°00'816.9
2019-Oct-12 07:00N 14°13' W 060°51'3224.6
2019-Oct-12 07:00N 14°12' W 060°48'711.9 120 / 81012.010.8 28.025.227.0
2019-Oct-12 06:23N 14°13' W 060°41'5817.2
2019-Oct-12 03:00N 13°30' W 060°00'8 0.4 130 / 101010.010.8 28.025.227.0
2019-Oct-11 07:00N 13°24' W 060°06'50 8.7 130 / 81011.010.8 28.025.226.0
2019-Oct-11 01:14N 13°35' W 060°56'29 8.1
2019-Oct-10 21:38N 14°02' W 061°07'210.1
2019-Oct-10 21:28N 14°03' W 061°05'5 9.3
2019-Oct-10 20:56N 14°01' W 060°60'0 0.0
2019-Oct-10 18:43N 14°01' W 060°60'0 0.0
2019-Oct-10 18:25N 14°01' W 060°60'0 0.0
2019-Oct-10 16:30N 14°01' W 060°60'0 0.0
2019-Oct-10 15:54N 14°01' W 060°60'0 0.0
2019-Oct-10 15:08N 14°01' W 060°60'0 0.0
2019-Oct-10 14:56N 14°01' W 060°60'0 0.0
2019-Oct-10 14:29N 14°01' W 060°60'0 0.0
2019-Oct-10 13:47N 14°01' W 060°60'0 0.0
2019-Oct-10 13:19N 14°01' W 060°60'0 0.0
2019-Oct-10 12:52N 14°01' W 060°60'0 0.0
2019-Oct-10 12:22N 14°01' W 060°60'0 0.0
2019-Oct-10 11:52N 14°01' W 060°60'0 0.1
2019-Oct-10 11:27N 14°01' W 060°60'1 3.0
2019-Oct-10 10:59N 14°01' W 061°01'510.0
2019-Oct-10 10:30N 14°05' W 061°05'612.1
2019-Oct-10 10:01N 14°09' W 061°09'1513.2
2019-Oct-10 08:54N 14°20' W 061°19'816.3
2019-Oct-10 08:24N 14°27' W 061°23'922.2
2019-Oct-10 08:00N 14°36' W 061°24'3689.2 100 / 121009.010.8 28.025.226.0
2019-Oct-10 07:59N 14°33' W 061°26'816.3
2019-Oct-10 07:30N 14°40' W 061°30'1116.3
2019-Oct-10 06:51N 14°50' W 061°35'196 7.9
2019-Oct-09 06:00N 17°42' W 063°12'43 1.8 100 / 141012.010.8 27.022.628.0
2019-Oct-08 06:00N 18°18' W 063°36'35 8.7 100 / 301011.010.8 27.022.628.0
2019-Oct-08 02:00N 18°12' W 064°12'25 9.6 110 / 261011.0 5.4 28.025.227.0
2019-Oct-07 23:22N 18°09' W 064°38'410.1
2019-Oct-07 23:00N 18°10' W 064°42'510.0
2019-Oct-07 22:30N 18°10' W 064°48'5 9.7
2019-Oct-07 22:00N 18°12' W 064°52'5 9.3
2019-Oct-07 21:30N 18°16' W 064°55'4 7.5
2019-Oct-07 21:00N 18°20' W 064°56'0 0.5
2019-Oct-07 20:30N 18°20' W 064°55'0 0.0
2019-Oct-07 19:59N 18°20' W 064°55'0 0.0
2019-Oct-07 19:29N 18°20' W 064°55'0 0.0
2019-Oct-07 18:59N 18°20' W 064°55'0 0.0
2019-Oct-07 18:29N 18°20' W 064°55'  
Track history (hours):
 
Tides and Currents Weather Stations Pressure Air Temp Water Temp Dewpoint Dewpoint Depression Visibility Wind Speed Wind Dir Waves Ship Positions

Fascination

Operator: Carnival Cruise Lines

Last reported at 2019-Oct-17 18:15 UTC. Time now 2019-Oct-17 18:47 UTC.
Position N 14°01' W 060°60'.

Type: Ship. MMSI: 309682000.

Date/timePositionNaut miles runAvg speedWind from/ knotsBaromVisibWave heightAir tempDewpointWater temp
2019-Oct-17 18:15N 14°01' W 060°60'0 0.0
2019-Oct-17 13:52N 14°01' W 060°60'0 0.0
2019-Oct-17 11:22N 14°01' W 060°60'0 0.6
2019-Oct-17 11:00N 14°01' W 060°60'2 4.8
2019-Oct-17 10:30N 14°02' W 061°02'612.0
2019-Oct-17 10:00N 14°06' W 061°06'612.2
2019-Oct-17 09:30N 14°10' W 061°11'917.1
2019-Oct-17 09:00N 14°17' W 061°17'916.8
2019-Oct-17 08:27N 14°25' W 061°22'817.1
2019-Oct-17 08:00N 14°32' W 061°25'916.8
2019-Oct-17 07:30N 14°39' W 061°29'1217.2
2019-Oct-17 06:49N 14°50' W 061°35'1012.8
2019-Oct-17 06:00N 15°00' W 061°36'184 7.6 040 / 21012.010.8 27.024.126.0
2019-Oct-16 06:00N 17°42' W 063°06'58 2.3 120 / 101014.010.8 28.025.227.0
2019-Oct-15 05:00N 18°24' W 063°48'48 9.0 110 / 111014.010.8 28.023.727.0
2019-Oct-14 23:35N 18°09' W 064°37'210.3
2019-Oct-14 23:26N 18°09' W 064°38'410.1
2019-Oct-14 23:00N 18°10' W 064°43'510.3
2019-Oct-14 22:30N 18°11' W 064°48'510.4
2019-Oct-14 22:00N 18°13' W 064°53'610.0
2019-Oct-14 21:26N 18°18' W 064°55'2 4.5
2019-Oct-14 21:00N 18°20' W 064°55'0 0.0
2019-Oct-14 20:27N 18°20' W 064°55'0 0.0
2019-Oct-14 19:45N 18°20' W 064°55'0 0.0
2019-Oct-14 19:27N 18°20' W 064°55'0 0.0
2019-Oct-14 18:57N 18°20' W 064°55'0 0.0
2019-Oct-14 18:27N 18°20' W 064°55'0 0.0
2019-Oct-14 17:56N 18°20' W 064°55'0 0.0
2019-Oct-14 17:20N 18°20' W 064°55'0 0.0
2019-Oct-14 16:56N 18°20' W 064°55'0 0.0
2019-Oct-14 16:26N 18°20' W 064°55'0 0.0
2019-Oct-14 15:55N 18°20' W 064°55'0 0.0
2019-Oct-14 15:19N 18°20' W 064°55'0 0.0
2019-Oct-14 14:55N 18°20' W 064°55'0 0.0
2019-Oct-14 14:25N 18°20' W 064°55'0 0.0
2019-Oct-14 13:55N 18°20' W 064°55'0 0.0
2019-Oct-14 13:15N 18°20' W 064°55'0 0.0
2019-Oct-14 13:00N 18°20' W 064°55'0 0.0
2019-Oct-14 12:30N 18°20' W 064°55'0 0.0
2019-Oct-14 12:00N 18°20' W 064°55'0 0.0
2019-Oct-14 11:30N 18°20' W 064°55'0 0.0
2019-Oct-14 11:00N 18°20' W 064°55'0 0.8
2019-Oct-14 10:30N 18°20' W 064°56'3 6.9
2019-Oct-14 10:00N 18°16' W 064°57'5 9.2
2019-Oct-14 09:30N 18°17' W 065°02'5 9.6
2019-Oct-14 09:00N 18°19' W 065°06'5 9.4
2019-Oct-14 08:30N 18°22' W 065°10'5 9.6
2019-Oct-14 08:00N 18°26' W 065°11'5 9.8
2019-Oct-14 07:30N 18°31' W 065°12'510.3
2019-Oct-14 07:00N 18°36' W 065°12'510.2
2019-Oct-14 06:30N 18°41' W 065°13'5 9.5
2019-Oct-14 06:00N 18°46' W 065°14'5 9.8
2019-Oct-14 05:30N 18°51' W 065°15'5 9.9
2019-Oct-14 05:00N 18°56' W 065°17'5522.8
2019-Oct-14 05:00N 18°54' W 065°12'1018.2 120 / 101013.010.8 28.023.727.0
2019-Oct-14 04:27N 18°57' W 065°22'510.3
2019-Oct-14 04:00N 18°58' W 065°27'610.3
2019-Oct-14 03:28N 18°58' W 065°33'510.3
2019-Oct-14 03:00N 18°58' W 065°38'510.2
2019-Oct-14 02:30N 18°58' W 065°43'23 9.0
2019-Oct-14 00:00N 18°44' W 066°02'610.3
2019-Oct-13 23:26N 18°39' W 066°05'410.2
2019-Oct-13 23:00N 18°35' W 066°07'510.1
2019-Oct-13 22:30N 18°30' W 066°08'3 5.1
2019-Oct-13 21:59N 18°28' W 066°07'0 0.1
2019-Oct-13 21:26N 18°28' W 066°07'0 0.0
2019-Oct-13 20:59N 18°28' W 066°07'0 0.0
2019-Oct-13 20:29N 18°28' W 066°07'0 0.0
2019-Oct-13 19:52N 18°28' W 066°07'0 0.0
2019-Oct-13 19:28N 18°28' W 066°07'0 0.0
2019-Oct-13 18:58N 18°28' W 066°07'0 0.0
2019-Oct-13 18:28N 18°28' W 066°07'0 0.0
2019-Oct-13 17:57N 18°28' W 066°07'0 0.0
2019-Oct-13 17:27N 18°28' W 066°07'0 0.0
2019-Oct-13 17:00N 18°28' W 066°07'0 0.0
2019-Oct-13 16:27N 18°28' W 066°07'0 0.0
2019-Oct-13 14:56N 18°28' W 066°07'0 0.0
2019-Oct-13 14:29N 18°28' W 066°07'0 0.0
2019-Oct-13 13:59N 18°28' W 066°07'0 0.0
2019-Oct-13 13:30N 18°28' W 066°07'0 0.0
2019-Oct-13 12:58N 18°28' W 066°07'0 0.0
2019-Oct-13 12:28N 18°28' W 066°07'0 0.0
2019-Oct-13 11:59N 18°28' W 066°07'0 0.0
2019-Oct-13 11:30N 18°28' W 066°07'0 0.0
2019-Oct-13 11:00N 18°28' W 066°07'0 0.0
2019-Oct-13 10:30N 18°28' W 066°07'2 3.5
2019-Oct-13 10:00N 18°29' W 066°08'510.7
2019-Oct-13 09:30N 18°34' W 066°07'611.1
2019-Oct-13 09:00N 18°40' W 066°04'710.6
2019-Oct-13 08:22N 18°44' W 065°59'512.3
2019-Oct-13 07:56N 18°43' W 065°54'512.4
2019-Oct-13 07:30N 18°43' W 065°48'612.6
2019-Oct-13 07:00N 18°41' W 065°41'8615.5
2019-Oct-13 07:00N 18°36' W 065°36'5 9.1 040 / 51012.010.8 28.023.727.0
2019-Oct-13 06:30N 18°40' W 065°35'714.6
2019-Oct-13 06:00N 18°39' W 065°27'815.1
2019-Oct-13 05:30N 18°35' W 065°20'815.7
2019-Oct-13 05:01N 18°29' W 065°15'815.5
2019-Oct-13 04:31N 18°23' W 065°10'815.4
2019-Oct-13 04:01N 18°16' W 065°09'714.2
2019-Oct-13 03:31N 18°12' W 065°03'816.1
2019-Oct-13 03:00N 18°09' W 064°55'816.2
2019-Oct-13 02:31N 18°08' W 064°47'816.1
2019-Oct-13 01:59N 18°05' W 064°38'27417.2
2019-Oct-12 10:06N 14°36' W 061°34'216.7
2019-Oct-12 09:58N 14°35' W 061°32'1016.8
2019-Oct-12 09:23N 14°27' W 061°26'1216.9
2019-Oct-12 08:41N 14°17' W 061°19'317.0
2019-Oct-12 08:30N 14°15' W 061°17'816.5
2019-Oct-12 08:00N 14°14' W 061°09'816.9
2019-Oct-12 07:31N 14°13' W 061°00'816.9
2019-Oct-12 07:00N 14°13' W 060°51'3224.6
2019-Oct-12 07:00N 14°12' W 060°48'711.9 120 / 81012.010.8 28.025.227.0
2019-Oct-12 06:23N 14°13' W 060°41'5817.2
2019-Oct-12 03:00N 13°30' W 060°00'8 0.4 130 / 101010.010.8 28.025.227.0
2019-Oct-11 07:00N 13°24' W 060°06'50 8.7 130 / 81011.010.8 28.025.226.0
2019-Oct-11 01:14N 13°35' W 060°56'29 8.1
2019-Oct-10 21:38N 14°02' W 061°07'210.1
2019-Oct-10 21:28N 14°03' W 061°05'5 9.3
2019-Oct-10 20:56N 14°01' W 060°60'0 0.0
2019-Oct-10 18:43N 14°01' W 060°60'0 0.0
2019-Oct-10 18:25N 14°01' W 060°60'0 0.0
2019-Oct-10 16:30N 14°01' W 060°60'0 0.0
2019-Oct-10 15:54N 14°01' W 060°60'0 0.0
2019-Oct-10 15:08N 14°01' W 060°60'0 0.0
2019-Oct-10 14:56N 14°01' W 060°60'0 0.0
2019-Oct-10 14:29N 14°01' W 060°60'0 0.0
2019-Oct-10 13:47N 14°01' W 060°60'0 0.0
2019-Oct-10 13:19N 14°01' W 060°60'0 0.0
2019-Oct-10 12:52N 14°01' W 060°60'0 0.0
2019-Oct-10 12:22N 14°01' W 060°60'0 0.0
2019-Oct-10 11:52N 14°01' W 060°60'0 0.1
2019-Oct-10 11:27N 14°01' W 060°60'1 3.0
2019-Oct-10 10:59N 14°01' W 061°01'510.0
2019-Oct-10 10:30N 14°05' W 061°05'612.1
2019-Oct-10 10:01N 14°09' W 061°09'1513.2
2019-Oct-10 08:54N 14°20' W 061°19'816.3
2019-Oct-10 08:24N 14°27' W 061°23'922.2
2019-Oct-10 08:00N 14°36' W 061°24'3689.2 100 / 121009.010.8 28.025.226.0
2019-Oct-10 07:59N 14°33' W 061°26'816.3
2019-Oct-10 07:30N 14°40' W 061°30'1116.3
2019-Oct-10 06:51N 14°50' W 061°35'196 7.9
2019-Oct-09 06:00N 17°42' W 063°12'43 1.8 100 / 141012.010.8 27.022.628.0
2019-Oct-08 06:00N 18°18' W 063°36'35 8.7 100 / 301011.010.8 27.022.628.0
2019-Oct-08 02:00N 18°12' W 064°12'25 9.6 110 / 261011.0 5.4 28.025.227.0
2019-Oct-07 23:22N 18°09' W 064°38'410.1
2019-Oct-07 23:00N 18°10' W 064°42'510.0
2019-Oct-07 22:30N 18°10' W 064°48'5 9.7
2019-Oct-07 22:00N 18°12' W 064°52'5 9.3
2019-Oct-07 21:30N 18°16' W 064°55'4 7.5
2019-Oct-07 21:00N 18°20' W 064°56'0 0.5
2019-Oct-07 20:30N 18°20' W 064°55'0 0.0
2019-Oct-07 19:59N 18°20' W 064°55'0 0.0
2019-Oct-07 19:29N 18°20' W 064°55'0 0.0
2019-Oct-07 18:59N 18°20' W 064°55'0 0.0
2019-Oct-07 18:29N 18°20' W 064°55'  

Dump ship's entire track history